• Join FlightAware (Why Join?)
  • Login
  • US Flag 
06:00AM EST


 

Airport Tracker/Info


-or-


 

Live Flight TrackerFlight Track Log ✈ SWA706 ✈ 13-Jul-2013 ✈ KMDW - KRNO

Flight Track Log - Related Links

Times and Time Zones

All times are in EDT time to prevent confusion due to time zone crossing. See the SWA706 flight status page for this flight to view local times or setup timezone preferences in your user account.

Time Position Orientation Groundspeed Altitude Reporting Facility
EDT Latitude Longitude Course Direction KTS MPH feet Rate Location/Type
07:33PM 41.8167 -87.7333 277° West 193 222 2,200  Level Chicago TRACON
07:34PM 41.8211 -87.7792 277° West 235 270 3,000 540 Climbing Chicago Center
07:35PM 41.7978 -87.8583 248° West 234 269 3,100 1,140 Climbing Chicago Center
07:36PM 41.7958 -87.9536 268° West 250 288 5,400 2,700 Climbing Chicago Center
07:37PM 41.8442 -88.0378 308° West 292 336 8,800 3,120 Climbing Chicago Center
07:38PM 41.8964 -88.1239 309° West 315 362 11,900 2,280 Climbing Chicago Center
07:39PM 41.8723 -88.6441 277° West  Level FlightAware Approximate
07:39PM 41.9211 -88.2428 286° West 333 383 13,500  Level Chicago Center
07:40PM 41.9558 -88.4058 286° West 372 428 16,500 2,520 Climbing Chicago Center
07:41PM 41.9853 -88.5500 285° West 395 455 18,700 2,160 Climbing Chicago Center
07:42PM 42.0175 -88.6969 286° West 407 468 21,000 1,920 Climbing Chicago Center
07:43PM 42.0336 -88.8553 278° West 437 503 22,700 1,500 Climbing Chicago Center
07:44PM 42.0372 -89.0200 272° West 443 510 24,100 1,800 Climbing Chicago Center
07:45PM 42.0431 -89.2233 272° West 457 526 26,500 1,800 Climbing Chicago Center
07:46PM 42.0697 -89.3911 282° West 461 531 27,900 1,260 Climbing Chicago Center
07:47PM 42.0944 -89.5756 280° West 474 545 29,200 960 Climbing Chicago Center
07:48PM 42.1189 -89.7597 280° West 493 567 30,000 960 Climbing Chicago Center
07:49PM 42.1319 -89.9519 275° West 515 593 31,200 1,500 Climbing Chicago Center
07:50PM 42.1314 -90.1369 270° West 510 587 33,100 1,680 Climbing Chicago Center
07:51PM 42.1317 -90.3225 270° West 502 578 34,700 1,380 Climbing Chicago Center
07:52PM 42.1281 -90.5042 269° West 493 567 36,000 600 Climbing Chicago Center
07:53PM 42.1239 -90.7172 269° West 481 554 36,000  Level Chicago Center
07:54PM 42.1203 -90.8933 268° West 476 548 36,000  Level Chicago Center
07:55PM 42.1186 -91.0722 269° West 478 550 36,000  Level Chicago Center
07:56PM 42.1189 -91.2492 270° West 477 549 36,000  Level Chicago Center
07:57PM 42.1194 -91.4247 270° West 473 544 36,000  Level Chicago Center
07:58PM 42.1208 -91.6003 271° West 471 542 36,000  Level Chicago Center
07:59PM 42.1231 -91.7761 271° West 471 542 36,000  Level Chicago Center
08:01PM 42.1278 -91.9850 272° West 467 537 36,000  Level Chicago Center
08:02PM 42.1511 -92.1544 281° West 460 529 36,000  Level Chicago Center
08:03PM 42.1697 -92.3236 278° West 459 528 36,000  Level Chicago Center
08:04PM 42.1869 -92.4922 278° West 457 526 36,000  Level Chicago Center
08:05PM 42.2039 -92.6603 278° West 454 522 36,000  Level Chicago Center
08:05PM 42.2153 -92.7619 279° West 454 522 36,000  Level Minneapolis Center
08:06PM 42.2317 -92.9286 278° West 453 521 36,000  Level Minneapolis Center
08:07PM 42.2483 -93.0939 278° West 451 519 36,000 -180 Level Minneapolis Center
08:08PM 42.2642 -93.2581 277° West 447 514 35,700 360 Descending Minneapolis Center
08:09PM 42.2853 -93.4614 278° West 457 526 36,800 900 Climbing Minneapolis Center
08:10PM 42.3006 -93.6258 277° West 450 518 37,600 540 Climbing Minneapolis Center
08:11PM 42.3158 -93.7911 277° West 448 516 38,000 180 Climbing Minneapolis Center
08:12PM 42.3308 -93.9581 277° West 453 521 38,000  Level Minneapolis Center
08:13PM 42.3458 -94.1247 277° West 451 519 38,000  Level Minneapolis Center
08:14PM 42.3625 -94.2994 277° West 446 513 38,000  Level Minneapolis Center
08:15PM 42.3764 -94.4647 277° West 444 511 38,000  Level Minneapolis Center
08:16PM 42.3908 -94.6286 277° West 441 507 38,000  Level Minneapolis Center
08:17PM 42.4044 -94.7928 276° West 441 507 38,000  Level Minneapolis Center
08:18PM 42.4183 -94.9572 277° West 441 507 38,000  Level Minneapolis Center
08:20PM 42.4339 -95.1519 276° West 438 504 38,000  Level Minneapolis Center
08:21PM 42.4464 -95.3150 276° West 438 504 38,000  Level Minneapolis Center
08:22PM 42.4600 -95.4775 277° West 437 503 38,000  Level Minneapolis Center
08:23PM 42.4719 -95.6367 276° West 430 495 38,000  Level Minneapolis Center
08:24PM 42.4836 -95.7939 276° West 424 488 38,000  Level Minneapolis Center
08:25PM 42.4956 -95.9525 276° West 424 488 38,000  Level Minneapolis Center
08:26PM 42.5072 -96.1117 276° West 425 489 38,000  Level Minneapolis Center
08:27PM 42.5186 -96.2722 276° West 429 494 38,000  Level Minneapolis Center
08:28PM 42.5322 -96.4650 276° West 429 494 38,000  Level Minneapolis Center
08:29PM 42.5431 -96.6250 275° West 430 495 38,000  Level Minneapolis Center
08:30PM 42.5531 -96.7844 275° West 428 493 38,000  Level Minneapolis Center
08:31PM 42.5478 -96.9475 268° West 432 497 38,000  Level Minneapolis Center
08:32PM 42.5433 -97.1083 268° West 430 495 38,000  Level Minneapolis Center
08:33PM 42.5389 -97.2681 268° West 429 494 38,000  Level Minneapolis Center
08:34PM 42.5344 -97.4275 268° West 425 489 38,000  Level Minneapolis Center
08:35PM 42.5294 -97.5856 268° West 424 488 38,000  Level Minneapolis Center
08:36PM 42.5239 -97.7769 268° West 424 488 38,000  Level Minneapolis Center
08:37PM 42.5189 -97.9111 267° West 422 486 38,000  Level Minneapolis Center
08:38PM 42.5122 -98.1025 267° West 425 489 38,000  Level Minneapolis Center
08:39PM 42.5056 -98.2633 267° West 427 491 38,000  Level Minneapolis Center
08:40PM 42.5008 -98.4219 268° West 425 489 38,000  Level Minneapolis Center
08:41PM 42.4936 -98.5811 267° West 424 488 38,000  Level Minneapolis Center
08:42PM 42.4881 -98.7397 267° West 423 487 38,000  Level Minneapolis Center
08:43PM 42.4794 -98.9297 267° West 422 486 38,000  Level Minneapolis Center
08:44PM 42.4722 -99.0894 267° West 425 489 38,000  Level Minneapolis Center
08:45PM 42.4633 -99.2800 266° West 425 489 38,000  Level Minneapolis Center
08:46PM 42.4561 -99.4386 267° West 424 488 38,000  Level Minneapolis Center
08:47PM 42.4528 -99.5033 266° West 424 488 38,000  Level Denver Center
08:48PM 42.4444 -99.6614 266° West 423 487 38,000  Level Denver Center
08:48PM 42.4400 -99.7586 266° West 427 491 38,000  Level Minneapolis Center
08:49PM 42.4314 -99.9197 266° West 429 494 38,000  Level Minneapolis Center
08:50PM 42.4239 -100.0797 266° West 428 493 38,000  Level Minneapolis Center
08:51PM 42.4147 -100.2378 266° West 425 489 38,000  Level Minneapolis Center
08:52PM 42.4056 -100.3986 266° West 427 491 38,000  Level Minneapolis Center
08:54PM 42.3947 -100.5886 266° West 424 488 38,000  Level Minneapolis Center
08:55PM 42.3858 -100.7461 266° West 423 487 38,000  Level Minneapolis Center
08:56PM 42.3756 -100.9078 265° West 428 493 38,000  Level Minneapolis Center
08:57PM 42.3614 -101.1531 266° West 428 493 38,000  Level Denver Center
08:58PM 42.3511 -101.3069 265° West 430 495 38,000  Level Denver Center
08:59PM 42.3397 -101.4833 265° West 423 487 38,000  Level Denver Center
09:00PM 42.3272 -101.6603 265° West 424 488 38,000  Level Denver Center
09:01PM 42.3153 -101.8358 265° West 422 486 38,000  Level Denver Center
09:02PM 42.3028 -102.0003 264° West 419 482 38,000  Level Denver Center
09:03PM 42.2767 -102.1486 257° West 421 484 38,000  Level Denver Center
09:04PM 42.2561 -102.2964 259° West 419 482 38,000  Level Denver Center
09:05PM 42.2344 -102.4681 260° West 417 480 38,000  Level Denver Center
09:07PM 42.2139 -102.6172 260° West 420 483 38,000  Level Denver Center
09:08PM 42.1908 -102.7886 260° West 416 479 38,000  Level Denver Center
09:09PM 42.1731 -102.9344 261° West 414 476 38,000  Level Denver Center
09:10PM 42.1528 -103.0808 259° West 414 476 38,000  Level Denver Center
09:11PM 42.1414 -103.2533 265° West 413 475 38,000  Level Denver Center
09:12PM 42.1325 -103.3994 265° West 409 471 38,000  Level Denver Center
09:13PM 42.1192 -103.5736 264° West 418 481 38,000  Level Denver Center
09:14PM 42.1081 -103.7206 264° West 413 475 38,000  Level Denver Center
09:15PM 42.0958 -103.8942 265° West 417 480 38,000  Level Denver Center
09:16PM 42.0839 -104.0439 264° West 419 482 38,000  Level Denver Center
09:17PM 42.0722 -104.1928 264° West 418 481 38,000  Level Denver Center
09:18PM 42.0561 -104.3939 264° West 421 484 38,000  Level Denver Center
09:19PM 42.0439 -104.5447 264° West 422 486 38,000  Level Denver Center
09:20PM 42.0289 -104.7186 263° West 419 482 38,000  Level Denver Center
09:21PM 42.0175 -104.8689 264° West 420 483 38,000  Level Denver Center
09:22PM 42.0047 -105.0147 263° West 414 476 38,000  Level Denver Center
09:23PM 41.9914 -105.1853 264° West 411 473 38,000  Level Denver Center
09:24PM 41.9814 -105.3333 265° West 414 476 38,000  Level Denver Center
09:25PM 41.9728 -105.4578 265° West 417 480 38,000  Level Denver Center
09:26PM 41.9589 -105.6547 265° West 416 479 38,000  Level Denver Center
09:27PM 41.9478 -105.8025 264° West 415 478 38,000  Level Denver Center
09:28PM 41.9350 -105.9744 264° West 415 478 38,000  Level Denver Center
09:29PM 41.9214 -106.1453 264° West 412 474 38,000  Level Denver Center
09:30PM 41.9094 -106.3211 265° West 419 482 38,000  Level Denver Center
09:32PM 41.8978 -106.4683 264° West 418 481 38,000  Level Denver Center
09:33PM 41.8831 -106.6392 263° West 417 480 38,000  Level Denver Center
09:34PM 41.8731 -106.7625 264° West 417 480 38,000  Level Denver Center
09:35PM 41.8600 -106.9356 264° West 416 479 38,000  Level Denver Center
09:36PM 41.8442 -107.1086 263° West 419 482 38,000  Level Denver Center
09:37PM 41.8328 -107.2558 264° West 418 481 38,000  Level Denver Center
09:38PM 41.8186 -107.4042 263° West 417 480 38,000  Level Salt Lake Center
09:39PM 41.8064 -107.5528 264° West 418 481 38,000  Level Salt Lake Center
09:40PM 41.7908 -107.7250 263° West 417 480 38,000  Level Salt Lake Center
09:41PM 41.7750 -107.8717 262° West 418 481 38,000  Level Salt Lake Center
09:42PM 41.7597 -108.0178 262° West 415 478 38,000  Level Salt Lake Center
09:43PM 41.7400 -108.1872 261° West 414 476 38,000  Level Salt Lake Center
09:44PM 41.7267 -108.3311 263° West 410 472 38,000  Level Salt Lake Center
09:45PM 41.7075 -108.4967 261° West 406 467 38,000  Level Salt Lake Center
09:46PM 41.6917 -108.6381 262° West 404 465 38,000  Level Salt Lake Center
09:47PM 41.6736 -108.8036 262° West 406 467 38,000  Level Salt Lake Center
09:48PM 41.6583 -108.9433 262° West 402 463 38,000  Level Salt Lake Center
09:49PM 41.6417 -109.0844 261° West 404 465 38,000  Level Salt Lake Center
09:50PM 41.6233 -109.2486 262° West 406 467 38,000  Level Salt Lake Center
09:51PM 41.6061 -109.3897 261° West 407 468 38,000  Level Salt Lake Center
09:52PM 41.5861 -109.5542 261° West 404 465 38,000  Level Salt Lake Center
09:53PM 41.5681 -109.6939 260° West 403 464 38,000  Level Salt Lake Center
09:54PM 41.5486 -109.8594 261° West 405 466 38,000  Level Salt Lake Center
09:55PM 41.5306 -109.9997 260° West 403 464 38,000  Level Salt Lake Center
09:56PM 41.5131 -110.1394 261° West 401 461 38,000  Level Salt Lake Center
09:57PM 41.4931 -110.3011 261° West 398 458 38,000  Level Salt Lake Center
09:58PM 41.4756 -110.4392 260° West 396 456 38,000  Level Salt Lake Center
09:59PM 41.4542 -110.5981 260° West 392 451 38,000  Level Salt Lake Center
10:00PM 41.4375 -110.7356 261° West 393 452 38,000  Level Salt Lake Center
10:01PM 41.4194 -110.8739 260° West 396 456 38,000  Level Salt Lake Center
10:02PM 41.3997 -111.0217 260° West 398 458 38,000  Level Salt Lake Center
10:03PM 41.3797 -111.1647 259° West 395 455 38,000  Level Salt Lake Center
10:04PM 41.3608 -111.3100 260° West 400 460 38,000  Level Salt Lake Center
10:05PM 41.3375 -111.4836 260° West 401 461 38,000  Level Salt Lake Center
10:06PM 41.3172 -111.6278 259° West 401 461 38,000  Level Salt Lake Center
10:07PM 41.2981 -111.7728 260° West 403 464 38,000  Level Salt Lake Center
10:08PM 41.2778 -111.9161 259° West 402 463 38,000  Level Salt Lake Center
10:09PM 41.2578 -112.0581 259° West 398 458 38,000  Level Salt Lake Center
10:10PM 41.2364 -112.2017 259° West 401 461 38,000  Level Salt Lake Center
10:11PM 41.2156 -112.3453 259° West 400 460 38,000  Level Salt Lake Center
10:12PM 41.1894 -112.5217 259° West 409 471 38,000  Level Salt Lake Center
10:13PM 41.1681 -112.6700 259° West 411 473 38,000  Level Salt Lake Center
10:14PM 41.1456 -112.8181 259° West 411 473 38,000  Level Salt Lake Center
10:15PM 41.1233 -112.9664 259° West 411 473 38,000  Level Salt Lake Center
10:16PM 41.1011 -113.1142 259° West 412 474 38,000  Level Salt Lake Center
10:17PM 41.0789 -113.2603 259° West 407 468 38,000  Level Salt Lake Center
10:18PM 41.0561 -113.4069 258° West 407 468 38,000  Level Salt Lake Center
10:19PM 41.0339 -113.5542 259° West 408 470 38,000  Level Salt Lake Center
10:20PM 41.0097 -113.7014 258° West 409 471 38,000  Level Salt Lake Center
10:21PM 40.9819 -113.8781 258° West 410 472 38,000  Level Salt Lake Center
10:22PM 40.9592 -114.0231 258° West 406 467 38,000  Level Salt Lake Center
10:23PM 40.9350 -114.1675 258° West 404 465 38,000  Level Salt Lake Center
10:24PM 40.9117 -114.3133 258° West 405 466 38,000  Level Salt Lake Center
10:25PM 40.8894 -114.4558 258° West 405 466 38,000  Level Salt Lake Center
10:27PM 40.8631 -114.6167 258° West 404 465 38,000  Level Salt Lake Center
10:28PM 40.8297 -114.7514 252° West 403 464 38,000  Level Salt Lake Center
10:29PM 40.7867 -114.8808 246° West 400 460 38,000  Level Salt Lake Center
10:30PM 40.7456 -115.0328 250° West 395 455 38,000  Level Salt Lake Center
10:31PM 40.7039 -115.1622 247° West 398 458 38,000  Level Salt Lake Center
10:32PM 40.6658 -115.2922 249° West 398 458 38,000  Level Salt Lake Center
10:33PM 40.6211 -115.4439 249° West 398 458 38,000  Level Salt Lake Center
10:34PM 40.5825 -115.5725 248° West 396 456 38,100  Climbing Salt Lake Center
10:35PM 40.5431 -115.7019 248° West 397 457 38,000 -60 Descending Salt Lake Center
10:36PM 40.4989 -115.8528 249° West 396 456 38,000  Level Salt Lake Center
10:37PM 40.4592 -115.9825 248° West 399 459 38,000  Level Salt Lake Center
10:38PM 40.4139 -116.1325 248° West 397 457 38,000  Level Salt Lake Center
10:39PM 40.3747 -116.2619 248° West 397 457 38,000  Level Salt Lake Center
10:40PM 40.3347 -116.3917 248° West 398 458 38,000  Level Salt Lake Center
10:41PM 40.2881 -116.5425 248° West 399 459 38,000  Level Salt Lake Center
10:42PM 40.2467 -116.6711 247° West 398 458 38,000  Level Salt Lake Center
10:43PM 40.2053 -116.8042 248° West 401 461 38,000  Level Salt Lake Center
10:44PM 40.1589 -116.9553 248° West 400 460 38,000  Level Salt Lake Center
10:45PM 40.1183 -117.0833 248° West 396 456 38,000  Level Salt Lake Center
10:46PM 40.0781 -117.2111 248° West 395 455 38,000  Level Salt Lake Center
10:47PM 40.0306 -117.3619 248° West 400 460 38,000  Level Salt Lake Center
10:48PM 39.9894 -117.4908 247° West 401 461 38,000  Level Salt Lake Center
10:49PM 39.9467 -117.6192 247° West 403 464 38,000  Level Salt Lake Center
10:50PM 39.8989 -117.7697 248° West 403 464 38,000 -420 Level Salt Lake Center
10:51PM 39.8572 -117.9039 248° West 401 461 37,100 -1,680 Descending Oakland Center
10:52PM 39.8058 -118.0600 247° West 394 453 34,400 -2,280 Descending Oakland Center
10:53PM 39.7642 -118.1861 247° West 384 442 32,500 -1,800 Descending Oakland Center
10:54PM 39.7239 -118.3078 247° West 371 427 30,800 -1,800 Descending Oakland Center
10:55PM 39.6842 -118.4286 247° West 366 421 28,900 -1,860 Descending Oakland Center
10:56PM 39.6453 -118.5472 247° West 362 417 27,100 -1,800 Descending Oakland Center
10:57PM 39.6064 -118.6636 247° West 357 411 25,300 -1,800 Descending Oakland Center
10:58PM 39.5681 -118.7767 246° West 349 402 23,500 -1,680 Descending Oakland Center
10:59PM 39.5303 -118.8897 247° West 348 400 21,900 -1,980 Descending Oakland Center
11:00PM 39.4817 -119.0308 246° West 362 417 19,500 -2,100 Descending Oakland Center
11:01PM 39.4428 -119.1467 247° West 356 410 17,700 -1,860 Descending Oakland Center
11:02PM 39.4039 -119.2581 246° West 344 396 15,800 -1,920 Descending Oakland Center
11:03PM 39.3647 -119.3725 246° West 349 402 13,800 -1,500 Descending Oakland Center
11:04PM 39.3258 -119.4844 246° West 343 395 12,800 -1,140 Descending Oakland Center
11:05PM 39.2886 -119.5922 246° West 335 386 11,600 -900 Descending Oakland Center
11:06PM 39.2539 -119.6947 246° West 325 374 11,000 -840 Descending Oakland Center
11:07PM 39.2781 -119.7756 291° West 296 341 10,000 -1,200 Descending Oakland Center
11:08PM 39.3444 -119.7700 North 259 298 8,600 -1,020 Descending Oakland Center
11:09PM 39.4078 -119.7694 360° North 239 275 8,000 -1,560 Descending Oakland Center
11:11PM 39.4667 -119.7667 North 150 173 4,900 -2,220 Descending Northern Cal TRACON
11:13PM 39.4833 -119.7667 North  Level FlightAware Approximate
11:20PM 39.4991 -119.7681 North  Level Estimated